Time;durP1;ratioP1;P1;durP2;ratioP2;P2;SDS_P1;SDS_P2;PMS_P1;PMS_P2;Temp;Humidity;BMP_temperature;BMP_pressure;BME280_temperature;BME280_humidity;BME280_pressure;Samples;Min_cycle;Max_cycle;Signal;HPM_P1;HPM_P2
2023/07/25 00:01:57;;;;;;;5.80;5.27;;;16.60;1.00;;;;;;5030475;28;20460;-70
2023/07/25 00:04:23;;;;;;;5.70;5.17;;;16.60;1.00;;;;;;5027979;28;20461;-71
2023/07/25 00:06:50;;;;;;;6.40;5.40;;;16.60;1.00;;;;;;5025305;28;20476;-69
2023/07/25 00:09:17;;;;;;;7.20;6.50;;;16.60;1.00;;;;;;5026331;28;20465;-70
2023/07/25 00:11:45;;;;;;;6.73;5.47;;;16.70;1.00;;;;;;5028171;28;20921;-69
2023/07/25 00:14:13;;;;;;;5.10;4.60;;;16.70;1.00;;;;;;5031561;28;20953;-70
2023/07/25 00:16:40;;;;;;;4.87;4.43;;;16.80;1.00;;;;;;5027598;28;20484;-70
2023/07/25 00:19:07;;;;;;;8.07;5.03;;;16.70;1.00;;;;;;5031731;28;20524;-70
2023/07/25 00:21:34;;;;;;;5.67;5.17;;;16.80;1.00;;;;;;5018795;28;21359;-71
2023/07/25 00:24:01;;;;;;;5.47;4.93;;;16.80;1.00;;;;;;5028701;28;20535;-71
2023/07/25 00:26:27;;;;;;;5.57;5.07;;;16.80;1.00;;;;;;5030708;28;20481;-71
2023/07/25 00:28:54;;;;;;;5.70;5.20;;;16.80;1.00;;;;;;5026923;28;20450;-70
2023/07/25 00:31:22;;;;;;;6.93;5.00;;;16.80;1.00;;;;;;5031439;28;20480;-71
2023/07/25 00:33:49;;;;;;;4.70;4.23;;;16.80;1.00;;;;;;5029065;28;20480;-71
2023/07/25 00:36:16;;;;;;;5.27;4.77;;;16.80;1.00;;;;;;5028282;28;20470;-72
2023/07/25 00:38:43;;;;;;;5.33;4.83;;;16.70;1.00;;;;;;5030557;28;20461;-70
2023/07/25 00:41:09;;;;;;;4.70;4.30;;;16.60;1.00;;;;;;5030321;28;20514;-72
2023/07/25 00:43:36;;;;;;;5.63;4.50;;;16.60;1.00;;;;;;5026749;28;21003;-73
2023/07/25 00:46:03;;;;;;;5.63;4.10;;;16.50;1.00;;;;;;5027922;28;20926;-71
2023/07/25 00:48:32;;;;;;;4.73;4.33;;;16.60;1.00;;;;;;5029321;28;20488;-72
2023/07/25 00:50:58;;;;;;;5.10;4.60;;;16.50;1.00;;;;;;5029805;28;20461;-71
2023/07/25 00:53:27;;;;;;;4.40;4.00;;;16.50;1.00;;;;;;5029858;28;20968;-75
2023/07/25 00:55:53;;;;;;;4.07;3.70;;;16.60;1.00;;;;;;5029439;28;20464;-70
2023/07/25 00:58:20;;;;;;;6.10;4.33;;;16.60;1.00;;;;;;5028304;28;20545;-70
2023/07/25 01:00:47;;;;;;;4.73;4.23;;;16.60;1.00;;;;;;5027631;28;20480;-72
2023/07/25 01:03:14;;;;;;;5.10;4.60;;;16.60;1.00;;;;;;5037687;22;20430;-76
2023/07/25 01:05:46;;;;;;;6.97;4.10;;;16.70;1.00;;;;;;5025972;28;20549;-77
2023/07/25 01:08:13;;;;;;;5.00;4.13;;;16.70;1.00;;;;;;5028188;28;20584;-76
2023/07/25 01:10:40;;;;;;;5.30;3.90;;;16.70;1.00;;;;;;5024961;28;20459;-76
2023/07/25 01:13:07;;;;;;;4.57;4.17;;;16.70;1.00;;;;;;5027150;28;20936;-76
2023/07/25 01:15:36;;;;;;;4.70;4.30;;;16.70;1.00;;;;;;5023786;28;20461;-76
2023/07/25 01:18:03;;;;;;;5.07;4.67;;;16.70;1.00;;;;;;5026411;28;20492;-76
2023/07/25 01:20:33;;;;;;;5.00;4.53;;;16.80;1.00;;;;;;5025690;28;20477;-75
2023/07/25 01:23:02;;;;;;;5.43;5.00;;;16.80;1.00;;;;;;5025355;28;21074;-76
2023/07/25 01:25:31;;;;;;;5.17;4.77;;;16.70;1.00;;;;;;5028662;28;20457;-76
2023/07/25 01:27:58;;;;;;;5.27;4.77;;;16.70;1.00;;;;;;5026649;28;22814;-76
2023/07/25 01:30:24;;;;;;;9.10;4.83;;;16.70;1.00;;;;;;5024310;28;20476;-76
2023/07/25 01:32:52;;;;;;;5.40;5.00;;;16.70;1.00;;;;;;5027075;28;20969;-76
2023/07/25 01:35:19;;;;;;;5.60;5.10;;;16.60;1.00;;;;;;5026657;28;20477;-76
2023/07/25 01:37:46;;;;;;;5.70;5.20;;;16.60;1.00;;;;;;5025242;28;20922;-76
2023/07/25 01:40:14;;;;;;;7.70;5.10;;;16.60;1.00;;;;;;5025945;28;20668;-76
2023/07/25 01:42:42;;;;;;;6.80;5.50;;;16.50;1.00;;;;;;5028225;28;20561;-75
2023/07/25 01:45:10;;;;;;;5.40;5.00;;;16.50;1.00;;;;;;5026808;28;20457;-76
2023/07/25 01:47:37;;;;;;;6.23;5.63;;;16.50;1.00;;;;;;5024361;28;20488;-76
2023/07/25 01:50:04;;;;;;;6.10;5.50;;;16.50;1.00;;;;;;5024788;28;20550;-76
2023/07/25 01:52:33;;;;;;;6.80;5.93;;;16.50;1.00;;;;;;5022474;28;20460;-77
2023/07/25 01:55:00;;;;;;;5.57;5.07;;;16.50;1.00;;;;;;5026479;28;20489;-75
2023/07/25 01:57:27;;;;;;;6.50;5.87;;;16.50;1.00;;;;;;5024349;28;20497;-77
2023/07/25 01:59:57;;;;;;;6.07;5.57;;;16.60;1.00;;;;;;5015146;28;20466;-75
2023/07/25 02:02:24;;;;;;;6.07;5.47;;;16.60;1.00;;;;;;5012331;28;20472;-76
2023/07/25 02:04:51;;;;;;;6.07;5.57;;;16.70;1.00;;;;;;5024881;28;20556;-76
2023/07/25 02:07:18;;;;;;;6.50;5.90;;;16.80;1.00;;;;;;5024962;28;20473;-76
2023/07/25 02:09:45;;;;;;;7.30;6.10;;;16.80;1.00;;;;;;5025389;28;20493;-77
2023/07/25 02:12:18;;;;;;;8.60;7.80;;;16.90;1.00;;;;;;5027779;28;20560;-76
2023/07/25 02:14:45;;;;;;;8.30;7.50;;;16.80;1.00;;;;;;5025119;28;20461;-76
2023/07/25 02:17:19;;;;;;;7.57;6.97;;;16.70;1.00;;;;;;5025570;28;20488;-76
2023/07/25 02:19:46;;;;;;;8.40;7.50;;;16.70;1.00;;;;;;5025194;28;20492;-76
2023/07/25 02:22:16;;;;;;;9.30;7.20;;;16.80;1.00;;;;;;5024623;28;20532;-75
2023/07/25 02:24:42;;;;;;;8.57;7.67;;;16.70;1.00;;;;;;5022445;28;20531;-75
2023/07/25 02:27:09;;;;;;;9.90;7.77;;;16.80;1.00;;;;;;5027481;28;20448;-76
2023/07/25 02:29:40;;;;;;;9.00;7.83;;;16.70;1.00;;;;;;5024698;28;20505;-76
2023/07/25 02:32:08;;;;;;;8.33;7.53;;;16.80;1.00;;;;;;5024746;28;20643;-74
2023/07/25 02:34:36;;;;;;;8.93;7.30;;;16.90;1.00;;;;;;5024460;28;20563;-74
2023/07/25 02:37:06;;;;;;;8.53;6.80;;;16.90;1.00;;;;;;5023731;28;20497;-75
2023/07/25 02:39:33;;;;;;;6.80;6.20;;;17.00;1.00;;;;;;5025381;28;20497;-75
2023/07/25 02:42:00;;;;;;;7.07;6.37;;;17.00;1.00;;;;;;5024677;28;20477;-74
2023/07/25 02:44:27;;;;;;;8.97;6.43;;;17.00;1.00;;;;;;5024302;28;20458;-75
2023/07/25 02:46:54;;;;;;;7.00;6.33;;;17.00;1.00;;;;;;5024363;28;20537;-75
2023/07/25 02:49:21;;;;;;;6.70;6.10;;;16.90;1.00;;;;;;5022254;28;20504;-75
2023/07/25 02:51:49;;;;;;;6.67;5.73;;;17.00;1.00;;;;;;5023929;28;20461;-75
2023/07/25 02:54:16;;;;;;;7.93;6.50;;;17.00;1.00;;;;;;5025124;28;20472;-75
2023/07/25 02:56:43;;;;;;;7.53;6.80;;;17.00;1.00;;;;;;5021181;28;21066;-75
2023/07/25 02:59:10;;;;;;;7.97;7.27;;;16.90;1.00;;;;;;5023069;28;20941;-73
2023/07/25 03:01:38;;;;;;;8.60;7.70;;;16.90;1.00;;;;;;5021018;28;20473;-75
2023/07/25 03:04:05;;;;;;;8.63;7.40;;;16.80;1.00;;;;;;5018236;28;20470;-74
2023/07/25 03:06:35;;;;;;;8.93;7.90;;;16.90;1.00;;;;;;5019002;28;20478;-77
2023/07/25 03:09:04;;;;;;;7.50;6.70;;;16.90;1.00;;;;;;5021674;28;20504;-75
2023/07/25 03:11:32;;;;;;;8.80;7.33;;;17.00;1.00;;;;;;5020954;28;20450;-75
2023/07/25 03:13:59;;;;;;;8.10;7.30;;;17.00;1.00;;;;;;5017290;28;20520;-75
2023/07/25 03:16:30;;;;;;;8.80;7.87;;;17.10;1.00;;;;;;5021198;28;20904;-74
2023/07/25 03:18:58;;;;;;;9.17;7.33;;;17.10;1.00;;;;;;5020440;28;20524;-76
2023/07/25 03:21:25;;;;;;;10.83;8.00;;;17.00;1.00;;;;;;5020716;28;20465;-74
2023/07/25 03:23:51;;;;;;;8.43;7.50;;;16.90;1.00;;;;;;5021467;28;20544;-74
2023/07/25 03:26:20;;;;;;;8.20;7.40;;;16.90;1.00;;;;;;5024774;28;20548;-74
2023/07/25 03:28:48;;;;;;;7.90;7.10;;;16.80;1.00;;;;;;5021455;28;20562;-74
2023/07/25 03:31:15;;;;;;;7.70;7.00;;;16.80;1.00;;;;;;5020441;28;20464;-74
2023/07/25 03:33:42;;;;;;;7.07;6.47;;;16.80;1.00;;;;;;5020483;28;20530;-75
2023/07/25 03:36:09;;;;;;;7.83;6.63;;;16.80;1.00;;;;;;5019723;28;20468;-75
2023/07/25 03:38:39;;;;;;;7.53;6.00;;;16.80;1.00;;;;;;5021419;28;20539;-76
2023/07/25 03:41:06;;;;;;;6.60;5.30;;;16.70;1.00;;;;;;5023167;28;20503;-74
2023/07/25 03:43:34;;;;;;;7.30;6.60;;;16.70;1.00;;;;;;5018473;28;20469;-74
2023/07/25 03:46:02;;;;;;;5.83;5.30;;;16.70;1.00;;;;;;5021152;28;20984;-75
2023/07/25 03:48:29;;;;;;;6.73;5.30;;;16.70;1.00;;;;;;5017105;28;20449;-75
2023/07/25 03:50:56;;;;;;;6.60;5.43;;;16.60;1.00;;;;;;5020104;28;20461;-75
2023/07/25 03:53:23;;;;;;;5.90;5.03;;;16.60;1.00;;;;;;5021662;28;20500;-75
2023/07/25 03:55:50;;;;;;;6.70;5.23;;;16.50;1.00;;;;;;5022489;28;20473;-75
2023/07/25 03:58:17;;;;;;;11.03;5.33;;;16.50;1.00;;;;;;5019113;28;20480;-74
2023/07/25 04:00:46;;;;;;;7.70;6.77;;;16.60;1.00;;;;;;5022193;28;20461;-73
2023/07/25 04:03:13;;;;;;;8.97;6.40;;;16.60;1.00;;;;;;5016766;28;20493;-75
2023/07/25 04:05:40;;;;;;;6.63;4.80;;;16.70;1.00;;;;;;5019975;28;20462;-73
2023/07/25 04:08:07;;;;;;;5.83;5.33;;;16.70;1.00;;;;;;5024937;28;20493;-75
2023/07/25 04:10:34;;;;;;;7.57;5.53;;;16.70;1.00;;;;;;5024810;28;20469;-75
2023/07/25 04:13:01;;;;;;;6.80;4.83;;;16.80;1.00;;;;;;5026562;28;20546;-75
2023/07/25 04:15:28;;;;;;;8.97;8.07;;;16.80;1.00;;;;;;5028709;28;20465;-76
2023/07/25 04:17:57;;;;;;;6.63;5.50;;;16.90;1.00;;;;;;5011962;28;20476;-74
2023/07/25 04:20:24;;;;;;;6.87;6.23;;;16.90;1.00;;;;;;5025227;28;20457;-76
2023/07/25 04:22:51;;;;;;;6.57;5.50;;;17.00;1.00;;;;;;5027365;28;20927;-75
2023/07/25 04:25:20;;;;;;;5.20;4.70;;;17.00;1.00;;;;;;5030448;28;20469;-75
2023/07/25 04:27:47;;;;;;;7.40;5.83;;;16.90;1.00;;;;;;5027955;28;20925;-76
2023/07/25 04:30:14;;;;;;;12.00;10.30;;;16.90;1.00;;;;;;5026995;28;20531;-74
2023/07/25 04:32:42;;;;;;;9.67;5.93;;;17.00;1.00;;;;;;5025725;28;20488;-74
2023/07/25 04:35:12;;;;;;;7.43;6.80;;;17.00;1.00;;;;;;5027365;28;20473;-74
2023/07/25 04:37:39;;;;;;;7.77;5.40;;;17.00;1.00;;;;;;5027789;28;20461;-75
2023/07/25 04:40:08;;;;;;;8.43;6.30;;;16.90;1.00;;;;;;5030212;28;20568;-75
2023/07/25 04:42:34;;;;;;;6.00;5.40;;;16.90;1.00;;;;;;5027426;28;20596;-75
2023/07/25 04:45:01;;;;;;;6.53;5.70;;;17.00;1.00;;;;;;5026400;28;21863;-75
2023/07/25 04:47:28;;;;;;;6.80;6.00;;;16.90;1.00;;;;;;5027669;28;20487;-75
2023/07/25 04:49:55;;;;;;;8.77;5.30;;;17.00;1.00;;;;;;5022808;28;20465;-75
2023/07/25 04:52:24;;;;;;;7.40;6.03;;;16.90;1.00;;;;;;5026717;28;20805;-75
2023/07/25 04:54:58;;;;;;;6.77;5.97;;;17.00;1.00;;;;;;5027072;28;20814;-76
2023/07/25 04:57:25;;;;;;;7.93;5.13;;;17.10;1.00;;;;;;5026520;28;20503;-74
2023/07/25 04:59:53;;;;;;;6.13;5.53;;;17.10;1.00;;;;;;5027030;28;20460;-75
2023/07/25 05:02:21;;;;;;;6.67;5.37;;;17.20;1.00;;;;;;5028020;28;20512;-74
2023/07/25 05:04:48;;;;;;;6.43;4.70;;;17.20;1.00;;;;;;5026004;28;20675;-75
2023/07/25 05:07:15;;;;;;;8.57;5.60;;;17.20;1.00;;;;;;5013556;28;21036;-75
2023/07/25 05:09:44;;;;;;;6.00;5.00;;;17.30;1.00;;;;;;5025898;28;20461;-75
2023/07/25 05:12:13;;;;;;;7.00;6.30;;;17.30;1.00;;;;;;5026977;28;21030;-75
2023/07/25 05:14:40;;;;;;;5.87;5.27;;;17.30;1.00;;;;;;5026899;28;21026;-74
2023/07/25 05:17:07;;;;;;;6.60;4.57;;;17.30;1.00;;;;;;5027542;28;20614;-76
2023/07/25 05:19:34;;;;;;;5.60;5.03;;;17.30;1.00;;;;;;5026245;28;20553;-74
2023/07/25 05:22:01;;;;;;;6.80;5.30;;;17.40;1.00;;;;;;5027441;28;20461;-74
2023/07/25 05:24:28;;;;;;;5.43;4.93;;;17.40;1.00;;;;;;5027553;28;20469;-74
2023/07/25 05:26:56;;;;;;;5.90;5.30;;;17.40;1.00;;;;;;5026041;28;20496;-75
2023/07/25 05:29:23;;;;;;;5.30;4.80;;;17.40;1.00;;;;;;5028080;28;22692;-76
2023/07/25 05:31:51;;;;;;;4.70;4.30;;;17.40;1.00;;;;;;5028328;28;20506;-74
2023/07/25 05:34:20;;;;;;;4.73;4.33;;;17.40;1.00;;;;;;5026230;28;20557;-75
2023/07/25 05:36:47;;;;;;;7.37;4.50;;;17.50;1.00;;;;;;5025597;28;20621;-75
2023/07/25 05:39:14;;;;;;;6.17;4.27;;;17.60;1.00;;;;;;5028648;28;20461;-75
2023/07/25 05:41:42;;;;;;;4.57;4.10;;;17.60;1.00;;;;;;5025105;28;20465;-74
2023/07/25 05:44:11;;;;;;;9.93;4.37;;;17.60;1.00;;;;;;5026306;28;20474;-76
2023/07/25 05:46:38;;;;;;;8.00;4.27;;;17.70;1.00;;;;;;5028075;28;20482;-73
2023/07/25 05:49:05;;;;;;;5.93;5.00;;;17.90;1.00;;;;;;5026628;28;20468;-74
2023/07/25 05:51:32;;;;;;;4.67;3.53;;;17.90;1.00;;;;;;5027764;28;20490;-75
2023/07/25 05:53:59;;;;;;;5.17;3.73;;;17.90;1.00;;;;;;5023823;28;20937;-74
2023/07/25 05:56:26;;;;;;;7.27;4.90;;;17.80;1.00;;;;;;5030100;28;20442;-76
2023/07/25 05:58:53;;;;;;;5.53;4.00;;;17.80;1.00;;;;;;5029530;28;20539;-75
2023/07/25 06:01:21;;;;;;;4.80;3.50;;;17.80;1.00;;;;;;5030749;28;20569;-74
2023/07/25 06:03:48;;;;;;;3.40;3.07;;;17.90;1.00;;;;;;5028146;28;20954;-75
2023/07/25 06:06:15;;;;;;;7.20;3.70;;;17.80;1.00;;;;;;5027505;28;20467;-74
2023/07/25 06:08:43;;;;;;;4.23;2.80;;;17.80;1.00;;;;;;5025128;28;20859;-74
2023/07/25 06:11:10;;;;;;;4.47;3.30;;;17.80;1.00;;;;;;5024216;28;20646;-77
2023/07/25 06:13:37;;;;;;;8.13;3.20;;;17.90;1.00;;;;;;5025782;28;20568;-75
2023/07/25 06:16:05;;;;;;;7.53;3.10;;;18.00;1.00;;;;;;5028667;28;20560;-76
2023/07/25 06:18:33;;;;;;;6.37;3.90;;;18.20;1.00;;;;;;5024740;28;22004;-75
2023/07/25 06:21:00;;;;;;;5.13;3.47;;;18.40;1.00;;;;;;5027374;28;20477;-76
2023/07/25 06:23:27;;;;;;;3.83;2.87;;;18.80;1.00;;;;;;5029964;28;20539;-78
2023/07/25 06:25:54;;;;;;;5.17;2.60;;;19.00;1.00;;;;;;5029024;28;20479;-77
2023/07/25 06:28:21;;;;;;;5.37;2.80;;;19.00;1.00;;;;;;5032686;28;21001;-77
2023/07/25 06:30:48;;;;;;;6.73;4.10;;;19.00;1.00;;;;;;5031463;28;20492;-77
2023/07/25 06:33:15;;;;;;;5.97;3.83;;;18.80;1.00;;;;;;5032827;28;20611;-77
2023/07/25 06:35:44;;;;;;;7.00;3.20;;;18.60;1.00;;;;;;5031737;28;20587;-77
2023/07/25 06:38:11;;;;;;;4.20;3.00;;;18.40;1.00;;;;;;5030150;28;20478;-76
2023/07/25 06:40:38;;;;;;;5.20;3.53;;;18.50;1.00;;;;;;5031659;28;20502;-76
2023/07/25 06:43:05;;;;;;;5.33;2.87;;;18.70;1.00;;;;;;5031308;28;20466;-77
2023/07/25 06:45:32;;;;;;;7.00;3.00;;;18.80;1.00;;;;;;5026803;28;20860;-77
2023/07/25 06:47:59;;;;;;;5.77;3.40;;;18.90;1.00;;;;;;5030437;28;20534;-77
2023/07/25 06:50:26;;;;;;;3.73;2.60;;;19.00;1.00;;;;;;5034366;28;20478;-77
2023/07/25 06:52:54;;;;;;;6.40;2.77;;;19.10;1.00;;;;;;5032568;28;20477;-78
2023/07/25 06:55:21;;;;;;;4.93;4.43;;;19.20;1.00;;;;;;5033631;28;20909;-78
2023/07/25 06:57:48;;;;;;;6.43;3.30;;;19.50;1.00;;;;;;5034660;28;20476;-78
2023/07/25 07:00:15;;;;;;;4.17;3.60;;;19.60;1.00;;;;;;5035051;28;20476;-77
2023/07/25 07:02:43;;;;;;;7.40;3.80;;;19.70;1.00;;;;;;5034451;28;20469;-77
2023/07/25 07:05:10;;;;;;;5.13;3.10;;;19.60;1.00;;;;;;5016234;28;20466;-77
2023/07/25 07:07:36;;;;;;;8.40;4.17;;;19.50;1.00;;;;;;5033527;28;20547;-78
2023/07/25 07:10:06;;;;;;;3.87;3.57;;;19.50;1.00;;;;;;5030253;28;20491;-77
2023/07/25 07:12:33;;;;;;;3.93;3.53;;;19.40;1.00;;;;;;5028373;28;20468;-77
2023/07/25 07:15:00;;;;;;;5.10;3.40;;;19.30;1.00;;;;;;5023522;28;20486;-74
2023/07/25 07:17:27;;;;;;;4.70;2.77;;;19.20;1.00;;;;;;5027743;28;20558;-75
2023/07/25 07:19:54;;;;;;;3.87;2.77;;;19.10;1.00;;;;;;5028025;28;20539;-75
2023/07/25 07:22:23;;;;;;;5.70;2.53;;;19.20;1.00;;;;;;5031730;28;20503;-75
2023/07/25 07:24:50;;;;;;;4.50;3.50;;;19.20;1.00;;;;;;5031039;28;20860;-74
2023/07/25 07:27:19;;;;;;;5.27;3.30;;;19.50;1.00;;;;;;5025872;28;20535;-75
2023/07/25 07:29:46;;;;;;;6.20;3.10;;;19.70;1.00;;;;;;5012647;28;20472;-74
2023/07/25 07:32:13;;;;;;;6.63;3.40;;;19.80;1.00;;;;;;5010027;28;20476;-74
2023/07/25 07:34:40;;;;;;;8.67;5.00;;;20.00;1.00;;;;;;5014374;28;20958;-74
2023/07/25 07:37:07;;;;;;;5.07;3.20;;;20.00;1.00;;;;;;5028125;28;20945;-73
2023/07/25 07:39:35;;;;;;;5.20;3.70;;;20.10;1.00;;;;;;5025103;28;20919;-74
2023/07/25 07:42:02;;;;;;;4.20;3.37;;;20.10;1.00;;;;;;5026548;28;21238;-74
2023/07/25 07:44:30;;;;;;;4.90;3.70;;;20.00;1.00;;;;;;5027169;28;20488;-74
2023/07/25 07:46:57;;;;;;;3.33;3.10;;;19.80;1.00;;;;;;5027914;28;20452;-76
2023/07/25 07:49:26;;;;;;;5.80;3.80;;;19.70;1.00;;;;;;5028541;28;20588;-74
2023/07/25 07:51:53;;;;;;;7.40;2.80;;;19.80;1.00;;;;;;5028789;28;20469;-75
2023/07/25 07:54:20;;;;;;;6.33;3.17;;;19.90;1.00;;;;;;5030265;28;20480;-75
2023/07/25 07:56:47;;;;;;;5.63;2.90;;;20.10;1.00;;;;;;5032491;28;20433;-73
2023/07/25 07:59:14;;;;;;;3.63;3.30;;;20.60;1.00;;;;;;5030941;28;20454;-74
2023/07/25 08:01:42;;;;;;;6.70;3.17;;;20.90;1.00;;;;;;5030138;28;20560;-74
2023/07/25 08:04:09;;;;;;;6.30;3.13;;;20.90;1.00;;;;;;5027637;28;20552;-74
2023/07/25 08:06:36;;;;;;;6.93;4.00;;;20.70;1.00;;;;;;5030456;28;20456;-74
2023/07/25 08:09:04;;;;;;;4.67;3.23;;;20.60;1.00;;;;;;5029390;28;20540;-74
2023/07/25 08:11:31;;;;;;;4.70;3.30;;;20.50;1.00;;;;;;5030898;28;20461;-74
2023/07/25 08:13:58;;;;;;;5.20;3.50;;;20.40;1.00;;;;;;5028546;28;20475;-74
2023/07/25 08:16:25;;;;;;;4.07;3.40;;;20.30;1.00;;;;;;5027550;28;20477;-74
2023/07/25 08:18:54;;;;;;;4.47;2.80;;;20.30;1.00;;;;;;5029171;28;20526;-74
2023/07/25 08:21:21;;;;;;;4.77;3.53;;;20.40;1.00;;;;;;5032545;28;20432;-74
2023/07/25 08:23:48;;;;;;;3.90;3.30;;;20.60;1.00;;;;;;5033226;28;20536;-74
2023/07/25 08:26:14;;;;;;;4.67;2.60;;;20.80;1.00;;;;;;5032027;28;20472;-75
2023/07/25 08:28:41;;;;;;;3.57;2.40;;;21.00;1.00;;;;;;5029317;28;20517;-74
2023/07/25 08:31:08;;;;;;;3.03;2.40;;;21.00;1.00;;;;;;5029792;28;20611;-74
2023/07/25 08:33:35;;;;;;;7.00;3.80;;;21.00;1.00;;;;;;5031560;28;20234;-74
2023/07/25 08:36:05;;;;;;;3.60;2.87;;;21.10;1.00;;;;;;5029212;28;21186;-74
2023/07/25 08:38:32;;;;;;;4.90;2.90;;;21.20;1.00;;;;;;5025617;28;20557;-74
2023/07/25 08:41:06;;;;;;;7.73;2.67;;;21.20;1.00;;;;;;5027446;28;20490;-74
2023/07/25 08:43:37;;;;;;;3.03;2.40;;;21.30;1.00;;;;;;5018819;28;20568;-74
2023/07/25 08:46:08;;;;;;;2.00;1.80;;;21.60;1.00;;;;;;5029667;28;20469;-74
2023/07/25 08:48:37;;;;;;;4.53;2.73;;;21.80;1.00;;;;;;5031180;28;20457;-74
2023/07/25 08:51:14;;;;;;;9.27;2.80;;;22.00;1.00;;;;;;5033076;28;20459;-74
2023/07/25 08:53:45;;;;;;;2.47;2.27;;;22.30;1.00;;;;;;5028592;28;20494;-74
2023/07/25 08:56:14;;;;;;;3.97;1.93;;;22.60;1.00;;;;;;5022567;28;20461;-74
2023/07/25 08:58:44;;;;;;;5.03;2.80;;;22.80;1.00;;;;;;5026187;28;21043;-74
2023/07/25 09:01:12;;;;;;;4.30;2.63;;;22.80;1.00;;;;;;5017127;28;20845;-74
2023/07/25 09:03:40;;;;;;;6.27;2.90;;;22.80;1.00;;;;;;5028347;28;20485;-75
2023/07/25 09:06:12;;;;;;;3.17;2.23;;;22.80;1.00;;;;;;5026954;28;20477;-74
2023/07/25 09:08:39;;;;;;;5.53;2.07;;;22.90;1.00;;;;;;5026643;28;21999;-74
2023/07/25 09:11:11;;;;;;;3.97;2.07;;;22.90;1.00;;;;;;5024937;28;20977;-73
2023/07/25 09:13:38;;;;;;;4.20;1.77;;;23.00;1.00;;;;;;5024173;28;20505;-73
2023/07/25 09:16:06;;;;;;;3.10;2.20;;;23.00;1.00;;;;;;5024229;28;20486;-73
2023/07/25 09:18:33;;;;;;;3.00;2.67;;;23.30;1.00;;;;;;5026869;28;20528;-73
2023/07/25 09:21:00;;;;;;;1.83;1.73;;;23.70;1.00;;;;;;5028883;28;20466;-74
2023/07/25 09:23:28;;;;;;;3.67;2.90;;;23.90;1.00;;;;;;5027992;28;20564;-76
2023/07/25 09:26:05;;;;;;;2.50;2.03;;;24.00;1.00;;;;;;5028759;28;20898;-81
2023/07/25 09:28:32;;;;;;;5.03;2.57;;;24.10;1.00;;;;;;5027275;28;20550;-73
2023/07/25 09:31:03;;;;;;;7.63;2.23;;;24.00;1.00;;;;;;5029295;28;20549;-74
2023/07/25 09:33:31;;;;;;;2.40;1.60;;;23.80;1.00;;;;;;5027859;28;20511;-78
2023/07/25 09:35:59;;;;;;;3.30;2.50;;;23.80;1.00;;;;;;5026297;28;20451;-75
2023/07/25 09:38:27;;;;;;;2.97;2.60;;;23.50;1.00;;;;;;5026445;28;20540;-76
2023/07/25 09:40:55;;;;;;;3.00;2.70;;;23.40;1.00;;;;;;5024680;28;20452;-75
2023/07/25 09:43:23;;;;;;;10.00;3.63;;;23.40;1.00;;;;;;5026389;28;20490;-76
2023/07/25 09:45:50;;;;;;;3.97;2.70;;;23.50;1.00;;;;;;5025296;28;20500;-76
2023/07/25 09:48:17;;;;;;;3.27;2.10;;;23.50;1.00;;;;;;5024326;28;20553;-76
2023/07/25 09:50:45;;;;;;;2.80;2.20;;;23.40;1.00;;;;;;5027952;28;20454;-76
2023/07/25 09:53:13;;;;;;;4.70;1.87;;;23.40;1.00;;;;;;5028535;28;20868;-76
2023/07/25 09:55:42;;;;;;;3.40;2.30;;;23.40;1.00;;;;;;5027749;28;20543;-77
2023/07/25 09:58:13;;;;;;;3.07;2.40;;;23.30;1.00;;;;;;5028179;28;20559;-76
2023/07/25 10:00:41;;;;;;;3.23;1.80;;;23.30;1.00;;;;;;5026804;28;20533;-76
2023/07/25 10:03:09;;;;;;;3.13;2.07;;;23.40;1.00;;;;;;5026733;28;20449;-76
2023/07/25 10:05:38;;;;;;;2.27;1.73;;;23.60;1.00;;;;;;5027641;28;20467;-76
2023/07/25 10:08:08;;;;;;;3.60;3.30;;;23.80;1.00;;;;;;5029830;28;20463;-77
2023/07/25 10:10:35;;;;;;;3.40;2.53;;;24.10;1.00;;;;;;5024272;28;20472;-79
2023/07/25 10:13:03;;;;;;;6.67;2.73;;;24.40;1.00;;;;;;5026665;28;20471;-76
2023/07/25 10:15:31;;;;;;;6.77;2.80;;;24.70;1.00;;;;;;5023464;28;20545;-77
2023/07/25 10:18:03;;;;;;;4.60;2.77;;;25.00;1.00;;;;;;5026137;28;20512;-77
2023/07/25 10:20:30;;;;;;;3.57;2.80;;;25.00;1.00;;;;;;5026293;28;20468;-77
2023/07/25 10:23:08;;;;;;;4.80;2.80;;;24.90;1.00;;;;;;5029979;28;20496;-77
2023/07/25 10:25:38;;;;;;;3.13;2.70;;;24.50;1.00;;;;;;5028703;28;20463;-76
2023/07/25 10:28:07;;;;;;;4.50;2.80;;;24.20;1.00;;;;;;5031654;28;20574;-77
2023/07/25 10:30:42;;;;;;;2.60;2.40;;;24.10;1.00;;;;;;5027524;28;20499;-77
2023/07/25 10:33:09;;;;;;;3.93;2.77;;;24.10;1.00;;;;;;5029121;28;20479;-77
2023/07/25 10:35:49;;;;;;;4.93;2.63;;;24.30;1.00;;;;;;5026704;28;20464;-77
2023/07/25 10:38:22;;;;;;;4.17;2.50;;;24.60;1.00;;;;;;5028371;28;20522;-78
2023/07/25 10:40:54;;;;;;;5.10;2.80;;;24.90;1.00;;;;;;5026622;28;20463;-77
2023/07/25 10:43:26;;;;;;;4.00;2.30;;;25.10;1.00;;;;;;5024655;28;21053;-77
2023/07/25 10:45:54;;;;;;;3.70;2.70;;;25.30;1.00;;;;;;5020752;28;20555;-77
2023/07/25 10:48:32;;;;;;;3.07;2.77;;;25.60;1.00;;;;;;5023057;28;20502;-78
2023/07/25 10:51:00;;;;;;;4.53;2.50;;;25.90;1.00;;;;;;5023423;28;20526;-77
2023/07/25 10:53:28;;;;;;;5.93;2.70;;;26.20;1.00;;;;;;5025530;28;20485;-81
2023/07/25 10:56:13;;;;;;;3.67;2.20;;;26.80;1.00;;;;;;5032873;28;20463;-80
2023/07/25 10:59:08;;;;;;;2.40;2.00;;;27.50;1.00;;;;;;5029455;28;20472;-79
2023/07/25 11:01:38;;;;;;;3.73;2.40;;;27.60;1.00;;;;;;5026870;28;20974;-78
2023/07/25 11:04:30;;;;;;;3.77;1.87;;;27.70;1.00;;;;;;5026952;28;20479;-78
2023/07/25 11:07:00;;;;;;;2.93;2.37;;;28.10;1.00;;;;;;5028095;28;20459;-78
2023/07/25 11:09:28;;;;;;;3.13;2.23;;;28.30;1.00;;;;;;5030353;28;20458;-81
2023/07/25 11:11:56;;;;;;;3.87;2.70;;;28.10;1.00;;;;;;5029544;28;20885;-80
2023/07/25 11:14:24;;;;;;;4.27;2.27;;;27.90;1.00;;;;;;5030405;28;20534;-79
2023/07/25 11:16:53;;;;;;;3.40;2.20;;;28.80;1.00;;;;;;5031307;28;20468;-79
2023/07/25 11:19:26;;;;;;;6.70;3.00;;;29.40;1.00;;;;;;5029052;28;20456;-79
2023/07/25 11:21:53;;;;;;;3.43;2.33;;;28.70;1.00;;;;;;5032215;28;20538;-78
2023/07/25 11:24:21;;;;;;;5.90;2.97;;;27.60;1.00;;;;;;5033857;28;20502;-78
2023/07/25 11:26:48;;;;;;;4.20;2.23;;;26.80;1.00;;;;;;5027620;28;20907;-80
2023/07/25 11:29:15;;;;;;;3.50;2.73;;;25.90;1.00;;;;;;5031278;28;20459;-77
2023/07/25 11:31:50;;;;;;;4.17;3.13;;;25.30;1.00;;;;;;5030176;28;20426;-77
2023/07/25 11:34:20;;;;;;;4.23;2.07;;;24.80;1.00;;;;;;5026246;28;20935;-78
2023/07/25 11:36:47;;;;;;;3.87;2.70;;;24.50;1.00;;;;;;5028771;28;20454;-77
2023/07/25 11:39:15;;;;;;;3.40;2.20;;;24.30;1.00;;;;;;5031851;28;21025;-77
2023/07/25 11:41:45;;;;;;;3.50;2.50;;;24.10;1.00;;;;;;5028638;28;20457;-78
2023/07/25 11:44:14;;;;;;;8.60;2.60;;;24.20;1.00;;;;;;5030986;28;20475;-78
2023/07/25 11:46:43;;;;;;;2.57;2.37;;;24.90;1.00;;;;;;5031753;28;20552;-78
2023/07/25 11:49:13;;;;;;;3.47;2.33;;;26.40;1.00;;;;;;5033553;28;20902;-78
2023/07/25 11:51:41;;;;;;;3.03;2.53;;;27.50;1.00;;;;;;5033045;28;20462;-78
2023/07/25 11:54:09;;;;;;;3.40;2.47;;;28.20;1.00;;;;;;5029601;28;20833;-78
2023/07/25 11:56:37;;;;;;;3.53;2.67;;;28.00;1.00;;;;;;5031087;28;20460;-77
2023/07/25 11:59:04;;;;;;;1.90;1.57;;;27.50;1.00;;;;;;5030505;28;20537;-77
2023/07/25 12:01:32;;;;;;;5.20;1.80;;;27.70;1.00;;;;;;5029783;28;20946;-76
2023/07/25 12:04:01;;;;;;;2.90;1.40;;;27.80;1.00;;;;;;5030108;28;20554;-77
2023/07/25 12:06:31;;;;;;;2.37;1.70;;;27.60;1.00;;;;;;5030116;28;20526;-78
2023/07/25 12:08:58;;;;;;;3.10;1.97;;;27.60;1.00;;;;;;5027581;28;20676;-78
2023/07/25 12:11:25;;;;;;;3.47;1.40;;;27.90;1.00;;;;;;5031274;28;20512;-78
2023/07/25 12:13:54;;;;;;;3.43;1.93;;;29.00;1.00;;;;;;5029723;28;20469;-77
2023/07/25 12:16:28;;;;;;;3.47;2.50;;;31.10;1.00;;;;;;5028479;28;20468;-76
2023/07/25 12:18:56;;;;;;;2.03;1.93;;;33.10;1.00;;;;;;5029623;28;20936;-77
2023/07/25 12:21:26;;;;;;;2.67;2.10;;;34.60;1.00;;;;;;5029209;28;20468;-76
2023/07/25 12:23:55;;;;;;;3.20;2.30;;;34.50;1.00;;;;;;5030685;28;20456;-76
2023/07/25 12:26:22;;;;;;;3.27;1.90;;;33.90;1.00;;;;;;5032147;28;20475;-76
2023/07/25 12:28:50;;;;;;;2.33;2.07;;;34.90;1.00;;;;;;5029787;28;20453;-76
2023/07/25 12:31:18;;;;;;;4.47;1.90;;;36.00;1.00;;;;;;5027287;28;20511;-76
2023/07/25 12:33:47;;;;;;;2.40;2.20;;;36.70;1.00;;;;;;5027777;28;20560;-76
2023/07/25 12:36:15;;;;;;;3.43;1.80;;;37.30;1.00;;;;;;5029642;28;20504;-77
2023/07/25 12:38:42;;;;;;;2.60;1.60;;;37.30;1.00;;;;;;5027334;28;20469;-75
2023/07/25 12:41:11;;;;;;;3.07;1.93;;;37.90;1.00;;;;;;5024782;28;20479;-76
2023/07/25 12:43:38;;;;;;;1.60;1.40;;;37.40;1.00;;;;;;5029033;28;20478;-77
2023/07/25 12:46:05;;;;;;;1.73;1.50;;;35.30;1.00;;;;;;5028629;28;20520;-77
2023/07/25 12:48:32;;;;;;;2.60;1.77;;;33.10;1.00;;;;;;5029580;28;20547;-75
2023/07/25 12:51:00;;;;;;;3.90;2.40;;;31.30;1.00;;;;;;5028544;28;20505;-77
2023/07/25 12:53:27;;;;;;;3.60;2.30;;;30.20;1.00;;;;;;5030258;28;20508;-76
2023/07/25 12:55:54;;;;;;;3.20;2.10;;;30.40;1.00;;;;;;5029201;28;20548;-79
2023/07/25 12:58:23;;;;;;;3.27;2.40;;;32.00;1.00;;;;;;5029452;28;20474;-80
2023/07/25 13:00:51;;;;;;;2.03;1.83;;;32.70;1.00;;;;;;5027623;28;20581;-77
2023/07/25 13:03:23;;;;;;;2.33;1.50;;;31.80;1.00;;;;;;5029753;28;20535;-78